Terminal Aerodrome Forecast
Issued by NWS

Home | Current Version | Previous Version | Text Only | Print | Product List | Glossary Off
Versions: 1 2 3 4 5 6 7 8 9 10 11 12 13 14 15 16 17 18 19 20 21 22

000
FTUS43 KGRB 290520
TAFCWA
TAF
KCWA 290520Z 2906/3006 07004KT P6SM VCSH OVC035
      TEMPO 2906/2910 5SM -RA BKN030
     FM291000 VRB03KT P6SM OVC040
     FM291600 05007KT P6SM BKN060
     FM291700 05008KT P6SM SCT070
     FM292000 08007KT P6SM SCT080
     FM300000 11006KT P6SM SCT110
      AMD LTD TO CLD VIS AND WIND TIL 291100=

USA.gov is the U.S. government's official web portal to all federal, state and local government web resources and services.